createdAt,value
2022-12-07T00:02:06.308Z,22.2
2022-12-07T00:07:36.786Z,22.1
2022-12-07T00:13:07.238Z,22.2
2022-12-07T00:18:36.721Z,22.2
2022-12-07T00:24:07.206Z,22.2
2022-12-07T00:29:37.797Z,22.2
2022-12-07T00:35:08.282Z,22.2
2022-12-07T00:40:38.867Z,22.2
2022-12-07T00:46:08.419Z,22.1
2022-12-07T00:51:38.820Z,22.1
2022-12-07T00:57:09.441Z,22.1
2022-12-07T01:02:39.903Z,22.1
2022-12-07T01:08:10.429Z,22.1
2022-12-07T01:13:41.006Z,22.1
2022-12-07T01:19:11.559Z,22.1
2022-12-07T01:24:42.008Z,22.1
2022-12-07T01:30:12.661Z,22.1
2022-12-07T01:35:43.128Z,22.1
2022-12-07T01:41:13.561Z,22
2022-12-07T01:46:44.188Z,22.1
2022-12-07T01:52:14.632Z,22
2022-12-07T01:57:45.107Z,22
2022-12-07T02:03:15.738Z,22
2022-12-07T02:08:46.170Z,22
2022-12-07T02:14:16.866Z,21.9
2022-12-07T02:19:47.373Z,21.9
2022-12-07T02:25:17.810Z,21.9
2022-12-07T02:30:47.348Z,21.9
2022-12-07T02:36:17.805Z,21.9
2022-12-07T02:41:48.241Z,21.9
2022-12-07T02:47:18.855Z,22
2022-12-07T02:52:49.358Z,21.9
2022-12-07T02:58:19.830Z,21.9
2022-12-07T03:03:49.306Z,21.9
2022-12-07T03:09:19.806Z,21.9
2022-12-07T03:14:50.350Z,21.9
2022-12-07T03:20:20.941Z,21.9
2022-12-07T03:25:54.620Z,21.9
2022-12-07T03:31:22.099Z,21.9
2022-12-07T03:36:52.482Z,21.9
2022-12-07T03:42:22.987Z,21.9
2022-12-07T03:47:52.438Z,21.9
2022-12-07T03:53:22.921Z,21.9
2022-12-07T03:58:52.453Z,21.9
2022-12-07T04:04:22.901Z,21.9
2022-12-07T04:09:53.454Z,21.9
2022-12-07T04:15:24.106Z,21.9
2022-12-07T04:20:54.553Z,21.9
2022-12-07T04:26:25.038Z,21.9
2022-12-07T04:31:54.644Z,21.9
2022-12-07T04:37:25.002Z,21.8
2022-12-07T04:42:55.495Z,21.9
2022-12-07T04:48:26.109Z,21.9
2022-12-07T04:53:56.540Z,21.8
2022-12-07T04:59:27.134Z,21.8
2022-12-07T05:04:57.626Z,21.8
2022-12-07T05:10:28.084Z,21.8
2022-12-07T05:15:57.626Z,21.8
2022-12-07T05:21:28.059Z,21.8
2022-12-07T05:26:58.518Z,21.9
2022-12-07T05:32:28.014Z,21.8
2022-12-07T05:37:58.494Z,21.9
2022-12-07T05:43:28.963Z,21.8
2022-12-07T05:48:59.542Z,21.8
2022-12-07T05:54:30.051Z,21.8
2022-12-07T06:00:01.103Z,21.8
2022-12-07T06:05:31.101Z,21.8
2022-12-07T06:11:01.607Z,21.8
2022-12-07T06:16:32.332Z,21.8
2022-12-07T06:22:02.702Z,21.7
2022-12-07T06:27:32.235Z,21.7
2022-12-07T06:33:02.690Z,21.7
2022-12-07T06:38:33.278Z,21.7
2022-12-07T06:44:03.772Z,21.7
2022-12-07T06:49:34.240Z,21.7
2022-12-07T06:55:03.744Z,21.7
2022-12-07T07:00:34.234Z,21.7
2022-12-07T07:06:04.686Z,21.8
2022-12-07T07:11:35.267Z,21.9
2022-12-07T07:18:11.865Z,21.9
2022-12-07T07:23:41.334Z,21.9
2022-12-07T07:29:11.796Z,21.9
2022-12-07T07:34:42.311Z,21.9
2022-12-07T07:40:12.882Z,21.9
2022-12-07T07:45:43.424Z,21.9
2022-12-07T07:51:13.877Z,21.9
2022-12-07T07:56:44.433Z,21.9
2022-12-07T08:02:14.995Z,21.9
2022-12-07T08:07:44.608Z,21.9
2022-12-07T08:13:15.019Z,21.9
2022-12-07T08:18:45.426Z,21.9
2022-12-07T08:24:14.926Z,21.9
2022-12-07T08:29:45.387Z,21.9
2022-12-07T08:35:15.875Z,21.9
2022-12-07T08:40:46.507Z,21.9
2022-12-07T08:46:17.034Z,21.9
2022-12-07T08:51:47.532Z,21.9
2022-12-07T08:57:18.040Z,21.9
2022-12-07T09:02:48.542Z,21.9
2022-12-07T09:08:19.206Z,21.9
2022-12-07T09:13:49.650Z,21.9
2022-12-07T09:19:19.100Z,21.9
2022-12-07T09:24:49.573Z,21.9
2022-12-07T09:30:20.061Z,21.9
2022-12-07T09:35:49.530Z,21.9
2022-12-07T09:41:20.005Z,21.9
2022-12-07T09:46:50.604Z,21.9
2022-12-07T09:52:20.009Z,21.9
2022-12-07T09:57:50.466Z,21.9
2022-12-07T10:03:21.063Z,21.8
2022-12-07T10:08:51.653Z,21.9
2022-12-07T10:14:38.162Z,21.9
2022-12-07T10:19:52.631Z,21.8
2022-12-07T10:25:23.183Z,21.9
2022-12-07T10:30:53.786Z,21.8
2022-12-07T10:36:24.150Z,21.8
2022-12-07T10:41:54.842Z,21.8
2022-12-07T10:47:25.411Z,21.9
2022-12-07T10:52:54.824Z,21.8
2022-12-07T10:58:25.296Z,21.8
2022-12-07T11:03:55.748Z,21.8
2022-12-07T11:09:45.056Z,21.8
2022-12-07T11:14:55.731Z,21.8
2022-12-07T11:20:26.182Z,21.8
2022-12-07T11:25:55.723Z,21.8
2022-12-07T11:31:29.367Z,21.8
2022-12-07T11:36:55.662Z,21.8
2022-12-07T11:42:26.298Z,21.8
2022-12-07T11:47:56.756Z,21.8
2022-12-07T11:53:27.228Z,21.8
2022-12-07T11:58:57.844Z,21.8
2022-12-07T12:04:28.271Z,21.8
2022-12-07T12:09:58.756Z,21.8
2022-12-07T12:15:29.386Z,21.8
2022-12-07T12:20:59.828Z,21.8
2022-12-07T12:26:30.467Z,21.8
2022-12-07T12:32:01.008Z,21.8
2022-12-07T12:37:31.494Z,21.8
2022-12-07T12:43:02.116Z,21.8
2022-12-07T12:48:32.618Z,21.8
2022-12-07T12:54:03.057Z,21.8
2022-12-07T12:59:32.532Z,21.8
2022-12-07T13:05:03.338Z,21.8
2022-12-07T13:10:33.646Z,21.8
2022-12-07T13:16:04.089Z,21.8
2022-12-07T13:21:34.732Z,21.8
2022-12-07T13:27:05.291Z,21.8
2022-12-07T13:32:35.778Z,21.8
2022-12-07T13:38:05.298Z,21.8
2022-12-07T13:43:35.738Z,21.8
2022-12-07T13:49:06.202Z,21.8
2022-12-07T13:54:36.829Z,21.8
2022-12-07T14:00:07.293Z,21.8
2022-12-07T14:05:37.871Z,21.7
2022-12-07T14:11:08.593Z,21.8
2022-12-07T14:16:38.978Z,21.8
2022-12-07T14:22:09.527Z,21.8
2022-12-07T14:27:40.145Z,21.8
2022-12-07T14:33:10.578Z,21.8
2022-12-07T14:38:41.178Z,21.8
2022-12-07T14:44:25.128Z,21.8
2022-12-07T14:49:42.241Z,21.8
2022-12-07T14:55:12.723Z,21.8
2022-12-07T15:00:43.252Z,21.8
2022-12-07T15:06:13.788Z,21.8
2022-12-07T15:11:44.741Z,21.8
2022-12-07T15:17:25.930Z,21.8
2022-12-07T15:22:45.376Z,21.8
2022-12-07T15:28:15.856Z,21.8
2022-12-07T15:33:46.354Z,21.8
2022-12-07T15:39:16.916Z,21.7
2022-12-07T15:44:47.407Z,21.8
2022-12-07T15:50:16.906Z,21.7
2022-12-07T15:55:47.371Z,21.8
2022-12-07T16:01:17.951Z,21.7
2022-12-07T16:06:47.500Z,21.6
2022-12-07T16:12:17.806Z,21.5
2022-12-07T16:17:48.286Z,21.5
2022-12-07T16:23:17.821Z,21.5
2022-12-07T16:28:48.247Z,21.6
2022-12-07T16:34:17.759Z,21.6
2022-12-07T16:39:48.349Z,21.6
2022-12-07T16:45:21.001Z,21.6
2022-12-07T16:50:51.411Z,21.7
2022-12-07T16:56:19.797Z,21.6
2022-12-07T17:01:50.248Z,21.7
2022-12-07T17:07:20.839Z,21.7
2022-12-07T17:12:51.349Z,21.7
2022-12-07T17:18:21.806Z,21.7
2022-12-07T17:23:51.271Z,21.7
2022-12-07T17:29:21.779Z,21.7
2022-12-07T17:34:51.242Z,21.7
2022-12-07T17:40:21.728Z,21.7
2022-12-07T17:45:52.470Z,21.7
2022-12-07T17:51:21.712Z,21.7
2022-12-07T17:56:52.203Z,21.6
2022-12-07T18:02:22.689Z,21.7
2022-12-07T18:07:53.374Z,21.7
2022-12-07T18:13:23.734Z,21.6
2022-12-07T18:18:54.229Z,21.8
2022-12-07T18:24:24.811Z,21.9
2022-12-07T18:29:55.272Z,22
2022-12-07T18:35:25.792Z,22.2
2022-12-07T18:40:56.339Z,22.2
2022-12-07T18:46:26.869Z,22.3
2022-12-07T18:51:56.337Z,22.3
2022-12-07T18:57:26.782Z,22.4
2022-12-07T19:02:57.316Z,22.3
2022-12-07T19:08:26.931Z,22.3
2022-12-07T19:13:57.299Z,22.3
2022-12-07T19:19:27.781Z,22.4
2022-12-07T19:24:57.305Z,22.4
2022-12-07T19:30:27.738Z,22.5
2022-12-07T19:35:58.217Z,22.5
2022-12-07T19:41:27.742Z,22.6
2022-12-07T19:47:04.252Z,22.6
2022-12-07T19:52:33.518Z,22.7
2022-12-07T19:57:59.313Z,22.7
2022-12-07T20:03:29.758Z,22.8
2022-12-07T20:09:00.479Z,22.8
2022-12-07T20:14:30.977Z,22.8
2022-12-07T20:20:01.447Z,22.8
2022-12-07T20:25:30.940Z,22.9
2022-12-07T20:31:01.529Z,22.8
2022-12-07T20:36:33.490Z,22.7
2022-12-07T20:42:02.501Z,22.7
2022-12-07T20:47:33.157Z,22.7
2022-12-07T20:53:03.690Z,22.6
2022-12-07T20:58:34.160Z,22.6
2022-12-07T21:04:04.706Z,22.6
2022-12-07T21:09:35.237Z,22.6
2022-12-07T21:15:04.960Z,22.6
2022-12-07T21:20:35.215Z,22.6
2022-12-07T21:26:05.671Z,22.6
2022-12-07T21:31:36.392Z,22.6
2022-12-07T21:37:06.921Z,22.5
2022-12-07T21:42:37.253Z,22.6
2022-12-07T21:48:07.856Z,22.5
2022-12-07T21:53:38.328Z,22.5
2022-12-07T21:59:08.909Z,22.5
2022-12-07T22:04:39.373Z,22.4
2022-12-07T22:10:09.875Z,22.4
2022-12-07T22:15:40.530Z,22.4
2022-12-07T22:21:10.924Z,22.3
2022-12-07T22:26:41.535Z,22.3
2022-12-07T22:32:46.672Z,22.3
2022-12-07T22:37:42.587Z,22.3
2022-12-07T22:43:13.087Z,22.3
2022-12-07T22:48:43.657Z,22.3
2022-12-07T22:54:14.213Z,22.2
2022-12-07T22:59:44.829Z,22.2
2022-12-07T23:05:15.291Z,22.2
2022-12-07T23:10:45.791Z,22.2
2022-12-07T23:16:15.351Z,22.3
2022-12-07T23:21:45.737Z,22.2
2022-12-07T23:27:16.210Z,22.2
2022-12-07T23:32:45.711Z,22.2
2022-12-07T23:38:16.146Z,22.2
2022-12-07T23:43:46.641Z,22.2
2022-12-07T23:49:17.399Z,22.2
2022-12-07T23:54:47.858Z,22.2
